sensor_id;sensor_type;location;lat;lon;timestamp;pressure;altitude;pressure_sealevel;temperature;humidity
40574;BME280;26283;49.020;8.644;2023-07-16T00:01:37;99078.63;;;27.08;52.37
40574;BME280;26283;49.020;8.644;2023-07-16T00:04:02;99077.81;;;27.07;52.33
40574;BME280;26283;49.020;8.644;2023-07-16T00:06:28;99084.50;;;27.06;52.37
40574;BME280;26283;49.020;8.644;2023-07-16T00:08:53;99071.81;;;27.05;52.40
40574;BME280;26283;49.020;8.644;2023-07-16T00:11:19;99089.56;;;27.04;52.40
40574;BME280;26283;49.020;8.644;2023-07-16T00:13:44;99078.84;;;27.03;52.36
40574;BME280;26283;49.020;8.644;2023-07-16T00:16:14;99076.06;;;27.03;52.32
40574;BME280;26283;49.020;8.644;2023-07-16T00:18:41;99062.56;;;27.01;52.35
40574;BME280;26283;49.020;8.644;2023-07-16T00:21:06;99045.16;;;27.01;52.32
40574;BME280;26283;49.020;8.644;2023-07-16T00:23:32;99023.38;;;26.99;52.27
40574;BME280;26283;49.020;8.644;2023-07-16T00:25:57;99048.25;;;26.99;52.20
40574;BME280;26283;49.020;8.644;2023-07-16T00:28:22;99028.41;;;26.97;52.12
40574;BME280;26283;49.020;8.644;2023-07-16T00:30:48;99029.03;;;26.94;52.11
40574;BME280;26283;49.020;8.644;2023-07-16T00:33:13;99012.47;;;26.94;52.08
40574;BME280;26283;49.020;8.644;2023-07-16T00:35:38;99011.97;;;26.92;52.06
40574;BME280;26283;49.020;8.644;2023-07-16T00:38:04;99002.06;;;26.91;52.01
40574;BME280;26283;49.020;8.644;2023-07-16T00:40:29;99007.91;;;26.89;51.94
40574;BME280;26283;49.020;8.644;2023-07-16T00:42:54;99030.38;;;26.88;51.82
40574;BME280;26283;49.020;8.644;2023-07-16T00:45:20;99029.56;;;26.87;51.73
40574;BME280;26283;49.020;8.644;2023-07-16T00:47:46;99025.97;;;26.87;51.63
40574;BME280;26283;49.020;8.644;2023-07-16T00:50:11;99042.09;;;26.85;51.58
40574;BME280;26283;49.020;8.644;2023-07-16T00:52:38;99047.97;;;26.83;51.44
40574;BME280;26283;49.020;8.644;2023-07-16T00:55:05;99049.94;;;26.83;51.38
40574;BME280;26283;49.020;8.644;2023-07-16T00:57:32;99082.28;;;26.82;51.33
40574;BME280;26283;49.020;8.644;2023-07-16T00:59:58;99070.41;;;26.82;51.25
40574;BME280;26283;49.020;8.644;2023-07-16T01:02:23;99068.78;;;26.81;51.19
40574;BME280;26283;49.020;8.644;2023-07-16T01:04:48;99073.50;;;26.80;51.15
40574;BME280;26283;49.020;8.644;2023-07-16T01:07:14;99075.78;;;26.78;51.03
40574;BME280;26283;49.020;8.644;2023-07-16T01:09:44;99082.12;;;26.79;51.00
40574;BME280;26283;49.020;8.644;2023-07-16T01:12:11;99104.59;;;26.77;51.03
40574;BME280;26283;49.020;8.644;2023-07-16T01:14:38;99094.66;;;26.76;50.95
40574;BME280;26283;49.020;8.644;2023-07-16T01:17:05;99105.22;;;26.74;50.96
40574;BME280;26283;49.020;8.644;2023-07-16T01:19:32;99114.34;;;26.75;50.96
40574;BME280;26283;49.020;8.644;2023-07-16T01:30:08;99078.56;;;26.70;50.98
40574;BME280;26283;49.020;8.644;2023-07-16T01:32:37;99081.66;;;26.68;50.95
40574;BME280;26283;49.020;8.644;2023-07-16T01:35:04;99089.47;;;26.66;50.88
40574;BME280;26283;49.020;8.644;2023-07-16T01:37:31;99072.88;;;26.66;50.84
40574;BME280;26283;49.020;8.644;2023-07-16T01:39:57;99102.47;;;26.66;50.75
40574;BME280;26283;49.020;8.644;2023-07-16T01:42:22;99113.84;;;26.64;50.70
40574;BME280;26283;49.020;8.644;2023-07-16T01:44:47;99104.75;;;26.63;50.57
40574;BME280;26283;49.020;8.644;2023-07-16T01:47:24;99112.28;;;26.63;50.61
40574;BME280;26283;49.020;8.644;2023-07-16T01:49:56;99096.81;;;26.62;50.66
40574;BME280;26283;49.020;8.644;2023-07-16T01:52:21;99109.00;;;26.61;50.57
40574;BME280;26283;49.020;8.644;2023-07-16T01:54:46;99103.81;;;26.59;50.59
40574;BME280;26283;49.020;8.644;2023-07-16T01:57:12;99121.53;;;26.58;50.54
40574;BME280;26283;49.020;8.644;2023-07-16T01:59:37;99123.00;;;26.56;50.47
40574;BME280;26283;49.020;8.644;2023-07-16T02:02:03;99133.25;;;26.55;50.48
40574;BME280;26283;49.020;8.644;2023-07-16T02:04:29;99137.13;;;26.54;50.54
40574;BME280;26283;49.020;8.644;2023-07-16T02:06:54;99138.28;;;26.53;50.62
40574;BME280;26283;49.020;8.644;2023-07-16T02:09:20;99150.47;;;26.52;50.63
40574;BME280;26283;49.020;8.644;2023-07-16T02:11:46;99152.41;;;26.52;50.67
40574;BME280;26283;49.020;8.644;2023-07-16T02:14:11;99133.41;;;26.50;50.66
40574;BME280;26283;49.020;8.644;2023-07-16T02:16:38;99132.59;;;26.50;50.68
40574;BME280;26283;49.020;8.644;2023-07-16T02:19:03;99143.97;;;26.48;50.79
40574;BME280;26283;49.020;8.644;2023-07-16T02:21:29;99158.91;;;26.47;50.77
40574;BME280;26283;49.020;8.644;2023-07-16T02:23:54;99159.25;;;26.46;50.83
40574;BME280;26283;49.020;8.644;2023-07-16T02:26:19;99163.97;;;26.45;50.89
40574;BME280;26283;49.020;8.644;2023-07-16T02:28:45;99154.03;;;26.44;50.89
40574;BME280;26283;49.020;8.644;2023-07-16T02:31:10;99157.94;;;26.43;50.92
40574;BME280;26283;49.020;8.644;2023-07-16T02:33:35;99166.56;;;26.42;50.93
40574;BME280;26283;49.020;8.644;2023-07-16T02:36:01;99164.16;;;26.40;50.92
40574;BME280;26283;49.020;8.644;2023-07-16T02:38:26;99172.44;;;26.40;50.92
40574;BME280;26283;49.020;8.644;2023-07-16T02:40:51;99183.00;;;26.38;50.90
40574;BME280;26283;49.020;8.644;2023-07-16T02:43:17;99189.66;;;26.37;50.91
40574;BME280;26283;49.020;8.644;2023-07-16T02:45:42;99191.59;;;26.37;50.88
40574;BME280;26283;49.020;8.644;2023-07-16T02:48:07;99192.75;;;26.36;50.88
40574;BME280;26283;49.020;8.644;2023-07-16T02:50:34;99193.06;;;26.34;50.86
40574;BME280;26283;49.020;8.644;2023-07-16T02:53:01;99208.00;;;26.33;50.87
40574;BME280;26283;49.020;8.644;2023-07-16T02:55:26;99195.34;;;26.32;50.89
40574;BME280;26283;49.020;8.644;2023-07-16T02:57:52;99193.72;;;26.31;50.86
40574;BME280;26283;49.020;8.644;2023-07-16T03:00:17;99195.66;;;26.31;50.77
40574;BME280;26283;49.020;8.644;2023-07-16T03:02:43;99184.91;;;26.29;50.78
40574;BME280;26283;49.020;8.644;2023-07-16T03:05:08;99187.97;;;26.27;50.76
40574;BME280;26283;49.020;8.644;2023-07-16T03:07:33;99183.59;;;26.26;50.67
40574;BME280;26283;49.020;8.644;2023-07-16T03:09:59;99180.00;;;26.26;50.64
40574;BME280;26283;49.020;8.644;2023-07-16T03:12:25;99165.72;;;26.24;50.62
40574;BME280;26283;49.020;8.644;2023-07-16T03:14:50;99177.91;;;26.23;50.65
40574;BME280;26283;49.020;8.644;2023-07-16T03:17:19;99176.28;;;26.22;50.62
40574;BME280;26283;49.020;8.644;2023-07-16T03:19:44;99181.31;;;26.20;50.56
40574;BME280;26283;49.020;8.644;2023-07-16T03:22:09;99189.59;;;26.20;50.52
40574;BME280;26283;49.020;8.644;2023-07-16T03:24:35;99185.56;;;26.17;50.43
40574;BME280;26283;49.020;8.644;2023-07-16T03:27:00;99190.59;;;26.15;50.40
40574;BME280;26283;49.020;8.644;2023-07-16T03:29:25;99191.72;;;26.14;50.38
40574;BME280;26283;49.020;8.644;2023-07-16T03:31:51;99205.53;;;26.14;50.38
40574;BME280;26283;49.020;8.644;2023-07-16T03:34:16;99200.31;;;26.13;50.35
40574;BME280;26283;49.020;8.644;2023-07-16T03:36:41;99200.31;;;26.13;50.39
40574;BME280;26283;49.020;8.644;2023-07-16T03:39:07;99194.31;;;26.11;50.44
40574;BME280;26283;49.020;8.644;2023-07-16T03:41:32;99192.69;;;26.10;50.41
40574;BME280;26283;49.020;8.644;2023-07-16T03:43:58;99199.34;;;26.09;50.41
40574;BME280;26283;49.020;8.644;2023-07-16T03:46:23;99215.91;;;26.09;50.43
40574;BME280;26283;49.020;8.644;2023-07-16T03:48:48;99223.69;;;26.07;50.44
40574;BME280;26283;49.020;8.644;2023-07-16T03:51:14;99215.41;;;26.07;50.42
40574;BME280;26283;49.020;8.644;2023-07-16T03:53:39;99222.38;;;26.04;50.39
40574;BME280;26283;49.020;8.644;2023-07-16T03:56:05;99236.19;;;26.04;50.46
40574;BME280;26283;49.020;8.644;2023-07-16T03:58:30;99243.66;;;26.04;50.45
40574;BME280;26283;49.020;8.644;2023-07-16T04:00:55;99253.09;;;26.03;50.45
40574;BME280;26283;49.020;8.644;2023-07-16T04:03:21;99254.22;;;26.02;50.44
40574;BME280;26283;49.020;8.644;2023-07-16T04:05:46;99256.47;;;26.00;50.43
40574;BME280;26283;49.020;8.644;2023-07-16T04:08:12;99252.91;;;25.99;50.46
40574;BME280;26283;49.020;8.644;2023-07-16T04:10:38;99262.34;;;25.98;50.49
40574;BME280;26283;49.020;8.644;2023-07-16T04:13:03;99259.91;;;25.97;50.54
40574;BME280;26283;49.020;8.644;2023-07-16T04:15:29;99269.34;;;25.95;50.51
40574;BME280;26283;49.020;8.644;2023-07-16T04:17:54;99256.66;;;25.94;50.57
40574;BME280;26283;49.020;8.644;2023-07-16T04:20:19;99255.84;;;25.94;50.54
40574;BME280;26283;49.020;8.644;2023-07-16T04:22:45;99258.09;;;25.92;50.53
40574;BME280;26283;49.020;8.644;2023-07-16T04:25:10;99245.44;;;25.91;50.58
40574;BME280;26283;49.020;8.644;2023-07-16T04:27:36;99254.03;;;25.89;50.53
40574;BME280;26283;49.020;8.644;2023-07-16T04:30:01;99265.06;;;25.89;50.55
40574;BME280;26283;49.020;8.644;2023-07-16T04:32:27;99283.59;;;25.89;50.58
40574;BME280;26283;49.020;8.644;2023-07-16T04:34:52;99289.44;;;25.87;50.57
40574;BME280;26283;49.020;8.644;2023-07-16T04:37:17;99279.50;;;25.86;50.54
40574;BME280;26283;49.020;8.644;2023-07-16T04:39:43;99286.97;;;25.86;50.49
40574;BME280;26283;49.020;8.644;2023-07-16T04:42:08;99291.69;;;25.85;50.48
40574;BME280;26283;49.020;8.644;2023-07-16T04:44:34;99298.34;;;25.84;50.59
40574;BME280;26283;49.020;8.644;2023-07-16T04:46:59;99302.22;;;25.83;50.57
40574;BME280;26283;49.020;8.644;2023-07-16T04:49:24;99302.22;;;25.83;50.48
40574;BME280;26283;49.020;8.644;2023-07-16T04:51:50;99300.09;;;25.80;50.52
40574;BME280;26283;49.020;8.644;2023-07-16T04:54:15;99299.28;;;25.80;50.48
40574;BME280;26283;49.020;8.644;2023-07-16T04:56:40;99310.34;;;25.80;50.46
40574;BME280;26283;49.020;8.644;2023-07-16T04:59:06;99307.87;;;25.78;50.49
40574;BME280;26283;49.020;8.644;2023-07-16T05:01:31;99306.25;;;25.77;50.47
40574;BME280;26283;49.020;8.644;2023-07-16T05:03:56;99304.66;;;25.76;50.46
40574;BME280;26283;49.020;8.644;2023-07-16T05:06:23;99310.19;;;25.76;50.58
40574;BME280;26283;49.020;8.644;2023-07-16T05:08:49;99312.44;;;25.74;50.59
40574;BME280;26283;49.020;8.644;2023-07-16T05:11:14;99310.81;;;25.73;50.63
40574;BME280;26283;49.020;8.644;2023-07-16T05:13:39;99320.22;;;25.72;50.59
40574;BME280;26283;49.020;8.644;2023-07-16T05:16:05;99322.16;;;25.72;50.62
40574;BME280;26283;49.020;8.644;2023-07-16T05:18:30;99328.00;;;25.70;50.61
40574;BME280;26283;49.020;8.644;2023-07-16T05:20:55;99320.84;;;25.69;50.59
40574;BME280;26283;49.020;8.644;2023-07-16T05:23:21;99325.56;;;25.69;50.71
40574;BME280;26283;49.020;8.644;2023-07-16T05:25:50;99347.94;;;25.67;50.71
40574;BME280;26283;49.020;8.644;2023-07-16T05:28:16;99338.84;;;25.67;50.77
40574;BME280;26283;49.020;8.644;2023-07-16T05:30:42;99328.13;;;25.65;50.69
40574;BME280;26283;49.020;8.644;2023-07-16T05:33:07;99322.94;;;25.64;50.74
40574;BME280;26283;49.020;8.644;2023-07-16T05:35:32;99333.16;;;25.63;50.77
40574;BME280;26283;49.020;8.644;2023-07-16T05:37:58;99331.47;;;25.62;50.81
40574;BME280;26283;49.020;8.644;2023-07-16T05:40:23;99345.28;;;25.62;50.85
40574;BME280;26283;49.020;8.644;2023-07-16T05:42:49;99343.97;;;25.59;50.84
40574;BME280;26283;49.020;8.644;2023-07-16T05:45:14;99341.22;;;25.59;50.87
40574;BME280;26283;49.020;8.644;2023-07-16T05:47:39;99349.81;;;25.58;50.91
40574;BME280;26283;49.020;8.644;2023-07-16T05:50:05;99351.75;;;25.57;50.95
40574;BME280;26283;49.020;8.644;2023-07-16T05:52:31;99354.81;;;25.56;50.90
40574;BME280;26283;49.020;8.644;2023-07-16T05:54:57;99364.22;;;25.55;50.84
40574;BME280;26283;49.020;8.644;2023-07-16T05:57:22;99364.22;;;25.55;50.84
40574;BME280;26283;49.020;8.644;2023-07-16T05:59:47;99367.31;;;25.53;50.78
40574;BME280;26283;49.020;8.644;2023-07-16T06:02:13;99347.19;;;25.53;50.77
40574;BME280;26283;49.020;8.644;2023-07-16T06:04:38;99351.91;;;25.52;50.72
40574;BME280;26283;49.020;8.644;2023-07-16T06:07:04;99346.69;;;25.51;50.62
40574;BME280;26283;49.020;8.644;2023-07-16T06:09:29;99345.06;;;25.50;50.61
40574;BME280;26283;49.020;8.644;2023-07-16T06:11:54;99351.41;;;25.50;50.65
40574;BME280;26283;49.020;8.644;2023-07-16T06:14:20;99356.41;;;25.48;50.64
40574;BME280;26283;49.020;8.644;2023-07-16T06:16:45;99357.53;;;25.47;50.67
40574;BME280;26283;49.020;8.644;2023-07-16T06:19:10;99365.00;;;25.47;50.76
40574;BME280;26283;49.020;8.644;2023-07-16T06:21:36;99360.63;;;25.46;50.81
40574;BME280;26283;49.020;8.644;2023-07-16T06:24:01;99373.59;;;25.45;50.82
40574;BME280;26283;49.020;8.644;2023-07-16T06:26:27;99353.47;;;25.45;50.84
40574;BME280;26283;49.020;8.644;2023-07-16T06:28:52;99369.50;;;25.43;50.85
40574;BME280;26283;49.020;8.644;2023-07-16T06:31:17;99370.63;;;25.42;50.81
40574;BME280;26283;49.020;8.644;2023-07-16T06:33:43;99373.41;;;25.42;50.76
40574;BME280;26283;49.020;8.644;2023-07-16T06:36:08;99376.16;;;25.42;50.74
40574;BME280;26283;49.020;8.644;2023-07-16T06:38:34;99376.47;;;25.40;50.69
40574;BME280;26283;49.020;8.644;2023-07-16T06:40:59;99382.81;;;25.41;50.64
40574;BME280;26283;49.020;8.644;2023-07-16T06:43:25;99378.41;;;25.40;50.63
40574;BME280;26283;49.020;8.644;2023-07-16T06:45:50;99371.25;;;25.39;50.74
40574;BME280;26283;49.020;8.644;2023-07-16T06:48:16;99364.12;;;25.38;50.77
40574;BME280;26283;49.020;8.644;2023-07-16T06:50:42;99377.91;;;25.38;50.67
40574;BME280;26283;49.020;8.644;2023-07-16T06:53:07;99384.56;;;25.37;50.65
40574;BME280;26283;49.020;8.644;2023-07-16T06:55:33;99384.84;;;25.35;50.59
40574;BME280;26283;49.020;8.644;2023-07-16T06:57:59;99377.41;;;25.36;50.52
40574;BME280;26283;49.020;8.644;2023-07-16T07:00:25;99382.09;;;25.35;50.51
40574;BME280;26283;49.020;8.644;2023-07-16T07:02:50;99389.56;;;25.35;50.54
40574;BME280;26283;49.020;8.644;2023-07-16T07:05:15;99395.41;;;25.33;50.55
40574;BME280;26283;49.020;8.644;2023-07-16T07:07:41;99391.84;;;25.33;50.49
40574;BME280;26283;49.020;8.644;2023-07-16T07:10:07;99386.34;;;25.33;50.53
40574;BME280;26283;49.020;8.644;2023-07-16T07:12:33;99388.28;;;25.32;50.54
40574;BME280;26283;49.020;8.644;2023-07-16T07:15:04;99384.69;;;25.32;50.53
40574;BME280;26283;49.020;8.644;2023-07-16T07:17:29;99388.28;;;25.32;50.63
40574;BME280;26283;49.020;8.644;2023-07-16T07:19:55;99381.13;;;25.31;50.59
40574;BME280;26283;49.020;8.644;2023-07-16T07:22:20;99388.59;;;25.31;50.55
40574;BME280;26283;49.020;8.644;2023-07-16T07:24:45;99384.19;;;25.30;50.60
40574;BME280;26283;49.020;8.644;2023-07-16T07:27:11;99388.06;;;25.28;50.55
40574;BME280;26283;49.020;8.644;2023-07-16T07:29:36;99386.13;;;25.29;50.53
40574;BME280;26283;49.020;8.644;2023-07-16T07:32:02;99388.06;;;25.28;50.42
40574;BME280;26283;49.020;8.644;2023-07-16T07:34:27;99398.28;;;25.28;50.36
40574;BME280;26283;49.020;8.644;2023-07-16T07:36:52;99393.59;;;25.28;50.30
40574;BME280;26283;49.020;8.644;2023-07-16T07:39:18;99398.28;;;25.28;50.34
40574;BME280;26283;49.020;8.644;2023-07-16T07:41:43;99407.37;;;25.28;50.38
40574;BME280;26283;49.020;8.644;2023-07-16T07:44:08;99401.38;;;25.26;50.36
40574;BME280;26283;49.020;8.644;2023-07-16T07:46:34;99406.87;;;25.26;50.39
40574;BME280;26283;49.020;8.644;2023-07-16T07:48:59;99406.87;;;25.26;50.28
40574;BME280;26283;49.020;8.644;2023-07-16T07:51:25;99404.13;;;25.26;50.32
40574;BME280;26283;49.020;8.644;2023-07-16T07:53:50;99410.75;;;25.25;50.33
40574;BME280;26283;49.020;8.644;2023-07-16T07:56:16;99414.66;;;25.24;50.20
40574;BME280;26283;49.020;8.644;2023-07-16T07:58:41;99407.19;;;25.25;50.18
40574;BME280;26283;49.020;8.644;2023-07-16T08:01:07;99413.53;;;25.25;50.15
40574;BME280;26283;49.020;8.644;2023-07-16T08:03:33;99415.47;;;25.25;50.15
40574;BME280;26283;49.020;8.644;2023-07-16T08:05:58;99410.75;;;25.25;50.16
40574;BME280;26283;49.020;8.644;2023-07-16T08:08:23;99409.13;;;25.24;50.14
40574;BME280;26283;49.020;8.644;2023-07-16T08:10:49;99409.13;;;25.24;50.20
40574;BME280;26283;49.020;8.644;2023-07-16T08:13:14;99414.66;;;25.24;50.34
40574;BME280;26283;49.020;8.644;2023-07-16T08:15:40;99405.56;;;25.24;50.29
40574;BME280;26283;49.020;8.644;2023-07-16T08:18:05;99402.81;;;25.24;50.46
40574;BME280;26283;49.020;8.644;2023-07-16T08:20:30;99402.81;;;25.24;50.66
40574;BME280;26283;49.020;8.644;2023-07-16T08:22:56;99408.31;;;25.24;50.75
40574;BME280;26283;49.020;8.644;2023-07-16T08:25:21;99403.62;;;25.24;50.65
40574;BME280;26283;49.020;8.644;2023-07-16T08:27:47;99403.62;;;25.24;50.58
40574;BME280;26283;49.020;8.644;2023-07-16T08:30:13;99398.09;;;25.24;50.42
40574;BME280;26283;49.020;8.644;2023-07-16T08:32:39;99397.28;;;25.24;50.30
40574;BME280;26283;49.020;8.644;2023-07-16T08:35:04;99391.75;;;25.24;50.40
40574;BME280;26283;49.020;8.644;2023-07-16T08:37:30;99393.72;;;25.23;50.42
40574;BME280;26283;49.020;8.644;2023-07-16T08:39:55;99411.59;;;25.26;51.30
40574;BME280;26283;49.020;8.644;2023-07-16T08:42:21;99409.53;;;25.32;51.21
40574;BME280;26283;49.020;8.644;2023-07-16T08:44:48;99416.66;;;25.33;51.31
40574;BME280;26283;49.020;8.644;2023-07-16T08:47:15;99423.78;;;25.34;51.52
40574;BME280;26283;49.020;8.644;2023-07-16T08:49:40;99412.75;;;25.34;51.53
40574;BME280;26283;49.020;8.644;2023-07-16T08:52:06;99423.00;;;25.33;51.57
40574;BME280;26283;49.020;8.644;2023-07-16T08:54:33;99417.50;;;25.33;51.64
40574;BME280;26283;49.020;8.644;2023-07-16T08:56:59;99409.53;;;25.32;51.72
40574;BME280;26283;49.020;8.644;2023-07-16T08:59:26;99423.31;;;25.32;51.77
40574;BME280;26283;49.020;8.644;2023-07-16T09:01:52;99431.59;;;25.32;51.82
40574;BME280;26283;49.020;8.644;2023-07-16T09:04:17;99434.34;;;25.32;51.86
40574;BME280;26283;49.020;8.644;2023-07-16T09:06:43;99439.06;;;25.31;51.90
40574;BME280;26283;49.020;8.644;2023-07-16T09:09:08;99420.88;;;25.30;51.94
40574;BME280;26283;49.020;8.644;2023-07-16T09:11:34;99413.41;;;25.31;51.94
40574;BME280;26283;49.020;8.644;2023-07-16T09:14:01;99420.06;;;25.30;51.99
40574;BME280;26283;49.020;8.644;2023-07-16T09:16:32;99432.72;;;25.31;52.04
40574;BME280;26283;49.020;8.644;2023-07-16T09:19:05;99429.97;;;25.31;52.12
40574;BME280;26283;49.020;8.644;2023-07-16T09:21:31;99441.00;;;25.31;52.15
40574;BME280;26283;49.020;8.644;2023-07-16T09:23:59;99435.47;;;25.31;52.11
40574;BME280;26283;49.020;8.644;2023-07-16T09:26:24;99436.28;;;25.31;52.15
40574;BME280;26283;49.020;8.644;2023-07-16T09:28:49;99437.09;;;25.32;52.16
40574;BME280;26283;49.020;8.644;2023-07-16T09:31:15;99433.22;;;25.33;52.14
40574;BME280;26283;49.020;8.644;2023-07-16T09:33:40;99434.81;;;25.34;52.13
40574;BME280;26283;49.020;8.644;2023-07-16T09:36:06;99438.41;;;25.34;52.13
40574;BME280;26283;49.020;8.644;2023-07-16T09:38:32;99433.69;;;25.35;52.13
40574;BME280;26283;49.020;8.644;2023-07-16T09:40:58;99449.12;;;25.36;52.19
40574;BME280;26283;49.020;8.644;2023-07-16T09:43:24;99438.91;;;25.36;52.22
40574;BME280;26283;49.020;8.644;2023-07-16T09:45:49;99436.16;;;25.36;52.21
40574;BME280;26283;49.020;8.644;2023-07-16T09:48:15;99436.97;;;25.37;52.09
40574;BME280;26283;49.020;8.644;2023-07-16T09:50:46;99431.44;;;25.37;51.98
40574;BME280;26283;49.020;8.644;2023-07-16T09:53:15;99434.72;;;25.39;51.92
40574;BME280;26283;49.020;8.644;2023-07-16T09:55:41;99433.59;;;25.40;51.88
40574;BME280;26283;49.020;8.644;2023-07-16T09:58:09;99439.09;;;25.40;51.86
40574;BME280;26283;49.020;8.644;2023-07-16T10:00:36;99437.97;;;25.41;51.89
40574;BME280;26283;49.020;8.644;2023-07-16T10:03:06;99442.06;;;25.43;51.90
40574;BME280;26283;49.020;8.644;2023-07-16T10:05:35;99440.12;;;25.44;51.91
40574;BME280;26283;49.020;8.644;2023-07-16T10:08:02;99439.00;;;25.45;51.90
40574;BME280;26283;49.020;8.644;2023-07-16T10:10:42;99436.75;;;25.47;51.86
40574;BME280;26283;49.020;8.644;2023-07-16T10:13:12;99429.28;;;25.47;51.88
40574;BME280;26283;49.020;8.644;2023-07-16T10:15:38;99447.97;;;25.50;51.87
40574;BME280;26283;49.020;8.644;2023-07-16T10:18:05;99437.75;;;25.51;51.84
40574;BME280;26283;49.020;8.644;2023-07-16T10:20:35;99442.13;;;25.52;51.85
40574;BME280;26283;49.020;8.644;2023-07-16T10:23:15;99439.88;;;25.54;51.85
40574;BME280;26283;49.020;8.644;2023-07-16T10:26:02;99438.72;;;25.55;51.84
40574;BME280;26283;49.020;8.644;2023-07-16T10:28:31;99433.72;;;25.57;51.79
40574;BME280;26283;49.020;8.644;2023-07-16T10:30:56;99442.50;;;25.59;51.76
40574;BME280;26283;49.020;8.644;2023-07-16T10:33:22;99438.63;;;25.60;51.79
40574;BME280;26283;49.020;8.644;2023-07-16T10:35:47;99430.03;;;25.61;51.77
40574;BME280;26283;49.020;8.644;2023-07-16T10:38:12;99434.44;;;25.62;51.74
40574;BME280;26283;49.020;8.644;2023-07-16T10:40:45;99436.59;;;25.66;51.74
40574;BME280;26283;49.020;8.644;2023-07-16T10:43:12;99427.16;;;25.67;51.72
40574;BME280;26283;49.020;8.644;2023-07-16T10:45:37;99424.91;;;25.69;51.70
40574;BME280;26283;49.020;8.644;2023-07-16T10:48:03;99425.72;;;25.69;51.66
40574;BME280;26283;49.020;8.644;2023-07-16T10:50:31;99420.72;;;25.71;51.64
40574;BME280;26283;49.020;8.644;2023-07-16T10:52:57;99425.09;;;25.72;51.61
40574;BME280;26283;49.020;8.644;2023-07-16T10:55:23;99422.03;;;25.74;51.59
40574;BME280;26283;49.020;8.644;2023-07-16T10:57:49;99419.78;;;25.76;51.54
40574;BME280;26283;49.020;8.644;2023-07-16T11:00:16;99413.91;;;25.77;51.51
40574;BME280;26283;49.020;8.644;2023-07-16T11:02:43;99414.41;;;25.79;51.49
40574;BME280;26283;49.020;8.644;2023-07-16T11:05:15;99421.56;;;25.80;51.47
40574;BME280;26283;49.020;8.644;2023-07-16T11:07:48;99412.97;;;25.82;51.43
40574;BME280;26283;49.020;8.644;2023-07-16T11:10:17;99411.84;;;25.83;51.41
40574;BME280;26283;49.020;8.644;2023-07-16T11:12:43;99409.59;;;25.85;51.37
40574;BME280;26283;49.020;8.644;2023-07-16T11:15:10;99412.34;;;25.85;51.36
40574;BME280;26283;49.020;8.644;2023-07-16T11:17:37;99412.03;;;25.86;51.34
40574;BME280;26283;49.020;8.644;2023-07-16T11:20:07;99409.78;;;25.88;51.32
40574;BME280;26283;49.020;8.644;2023-07-16T11:22:32;99412.22;;;25.90;51.29
40574;BME280;26283;49.020;8.644;2023-07-16T11:24:58;99402.00;;;25.90;51.26
40574;BME280;26283;49.020;8.644;2023-07-16T11:27:26;99417.44;;;25.91;51.24
40574;BME280;26283;49.020;8.644;2023-07-16T11:29:57;99413.22;;;25.94;51.21
40574;BME280;26283;49.020;8.644;2023-07-16T11:32:41;99403.00;;;25.94;51.17
40574;BME280;26283;49.020;8.644;2023-07-16T11:35:07;99407.37;;;25.95;51.16
40574;BME280;26283;49.020;8.644;2023-07-16T11:37:35;99405.13;;;25.98;51.12
40574;BME280;26283;49.020;8.644;2023-07-16T11:40:05;99403.97;;;25.99;51.10
40574;BME280;26283;49.020;8.644;2023-07-16T11:42:37;99401.19;;;25.99;51.08
40574;BME280;26283;49.020;8.644;2023-07-16T11:45:04;99398.13;;;26.00;51.06
40574;BME280;26283;49.020;8.644;2023-07-16T11:47:30;99397.81;;;26.02;51.04
40574;BME280;26283;49.020;8.644;2023-07-16T11:49:56;99408.84;;;26.02;51.03
40574;BME280;26283;49.020;8.644;2023-07-16T11:52:27;99388.22;;;25.99;51.01
40574;BME280;26283;49.020;8.644;2023-07-16T11:54:53;99388.41;;;26.03;50.97
40574;BME280;26283;49.020;8.644;2023-07-16T11:57:19;99399.94;;;26.05;50.94
40574;BME280;26283;49.020;8.644;2023-07-16T11:59:44;99386.94;;;26.05;50.91
40574;BME280;26283;49.020;8.644;2023-07-16T12:02:10;99385.00;;;26.06;50.87
40574;BME280;26283;49.020;8.644;2023-07-16T12:04:35;99381.13;;;26.07;50.86
40574;BME280;26283;49.020;8.644;2023-07-16T12:07:01;99376.09;;;26.09;50.83
40574;BME280;26283;49.020;8.644;2023-07-16T12:09:26;99389.91;;;26.09;50.80
40574;BME280;26283;49.020;8.644;2023-07-16T12:11:52;99372.50;;;26.08;50.76
40574;BME280;26283;49.020;8.644;2023-07-16T12:14:17;99376.09;;;26.09;50.72
40574;BME280;26283;49.020;8.644;2023-07-16T12:16:42;99380.47;;;26.10;50.71
40574;BME280;26283;49.020;8.644;2023-07-16T12:19:09;99373.81;;;26.11;50.69
40574;BME280;26283;49.020;8.644;2023-07-16T12:21:35;99371.88;;;26.11;50.67
40574;BME280;26283;49.020;8.644;2023-07-16T12:24:00;99378.22;;;26.12;50.64
40574;BME280;26283;49.020;8.644;2023-07-16T12:26:26;99375.13;;;26.13;50.62
40574;BME280;26283;49.020;8.644;2023-07-16T12:28:52;99375.97;;;26.14;50.58
40574;BME280;26283;49.020;8.644;2023-07-16T12:31:17;99373.19;;;26.14;50.54
40574;BME280;26283;49.020;8.644;2023-07-16T12:33:43;99373.69;;;26.16;50.51
40574;BME280;26283;49.020;8.644;2023-07-16T12:36:09;99372.56;;;26.17;50.45
40574;BME280;26283;49.020;8.644;2023-07-16T12:38:34;99363.16;;;26.18;50.44
40574;BME280;26283;49.020;8.644;2023-07-16T12:41:01;99363.16;;;26.18;50.43
40574;BME280;26283;49.020;8.644;2023-07-16T12:43:27;99362.00;;;26.19;50.40
40574;BME280;26283;49.020;8.644;2023-07-16T12:45:52;99365.59;;;26.19;50.39
40574;BME280;26283;49.020;8.644;2023-07-16T12:48:45;99366.88;;;26.22;50.38
40574;BME280;26283;49.020;8.644;2023-07-16T12:51:10;99366.88;;;26.22;50.37
40574;BME280;26283;49.020;8.644;2023-07-16T12:53:35;99362.97;;;26.23;50.35
40574;BME280;26283;49.020;8.644;2023-07-16T12:56:01;99361.84;;;26.24;50.35
40574;BME280;26283;49.020;8.644;2023-07-16T13:15:29;99356.00;;;26.25;50.29
40574;BME280;26283;49.020;8.644;2023-07-16T13:17:54;99360.37;;;26.26;50.29
40574;BME280;26283;49.020;8.644;2023-07-16T13:20:21;99362.34;;;26.26;50.31